createdAt,value
2023-02-27T00:03:29.939Z,3.67
2023-02-27T00:08:23.822Z,3.20
2023-02-27T00:13:19.023Z,2.93
2023-02-27T00:18:12.440Z,3.17
2023-02-27T00:23:07.026Z,3.07
2023-02-27T00:28:00.442Z,3.30
2023-02-27T00:32:56.022Z,3.00
2023-02-27T00:37:50.150Z,3.63
2023-02-27T00:42:43.513Z,3.10
2023-02-27T00:47:37.412Z,3.10
2023-02-27T00:52:33.764Z,3.03
2023-02-27T00:57:28.084Z,3.00
2023-02-27T01:02:21.511Z,3.00
2023-02-27T01:07:15.357Z,3.00
2023-02-27T01:12:10.697Z,3.03
2023-02-27T01:17:04.420Z,2.83
2023-02-27T01:21:57.877Z,2.47
2023-02-27T01:26:52.603Z,3.23
2023-02-27T01:31:49.066Z,2.63
2023-02-27T01:36:44.368Z,3.33
2023-02-27T01:41:38.054Z,2.93
2023-02-27T01:46:33.429Z,3.13
2023-02-27T01:51:37.176Z,3.20
2023-02-27T01:56:33.020Z,3.50
2023-02-27T02:01:27.896Z,3.50
2023-02-27T02:06:25.837Z,3.70
2023-02-27T02:11:23.076Z,3.27
2023-02-27T02:16:46.327Z,3.40
2023-02-27T02:22:35.778Z,3.57
2023-02-27T02:27:55.340Z,3.17
2023-02-27T02:33:46.879Z,3.37
2023-02-27T02:39:09.138Z,3.00
2023-02-27T02:44:17.524Z,3.00
2023-02-27T02:49:22.498Z,3.20
2023-02-27T02:54:27.096Z,3.10
2023-02-27T02:59:28.243Z,3.30
2023-02-27T03:04:28.939Z,2.87
2023-02-27T03:09:35.825Z,3.23
2023-02-27T03:14:37.178Z,2.80
2023-02-27T03:19:39.007Z,3.13
2023-02-27T03:24:41.143Z,2.80
2023-02-27T03:29:43.797Z,3.20
2023-02-27T03:34:43.106Z,2.80
2023-02-27T03:39:47.840Z,3.00
2023-02-27T03:44:56.255Z,3.23
2023-02-27T03:49:51.874Z,3.00
2023-02-27T03:54:54.688Z,3.10
2023-02-27T03:59:48.086Z,3.30
2023-02-27T04:04:41.559Z,3.13
2023-02-27T04:10:15.530Z,3.17
2023-02-27T04:15:24.899Z,3.50
2023-02-27T04:20:37.029Z,3.30
2023-02-27T04:26:05.553Z,2.93
2023-02-27T04:31:15.857Z,3.47
2023-02-27T04:36:17.688Z,3.10
2023-02-27T04:41:21.817Z,3.70
2023-02-27T04:46:22.493Z,3.20
2023-02-27T04:51:21.180Z,3.10
2023-02-27T04:56:23.370Z,3.17
2023-02-27T05:01:23.505Z,3.10
2023-02-27T05:06:23.211Z,3.47
2023-02-27T05:11:28.315Z,3.30
2023-02-27T05:16:29.652Z,3.40
2023-02-27T05:21:30.723Z,3.40
2023-02-27T05:26:42.033Z,3.10
2023-02-27T05:31:48.033Z,3.43
2023-02-27T05:36:48.964Z,3.27
2023-02-27T05:41:51.429Z,3.23
2023-02-27T05:46:53.301Z,3.40
2023-02-27T05:51:51.430Z,3.33
2023-02-27T05:56:51.135Z,3.40
2023-02-27T06:01:46.366Z,3.33
2023-02-27T06:06:42.031Z,3.37
2023-02-27T06:11:35.418Z,3.30
2023-02-27T06:16:30.563Z,3.60
2023-02-27T06:21:23.986Z,3.40
2023-02-27T06:26:17.931Z,3.37
2023-02-27T06:31:11.302Z,3.50
2023-02-27T06:36:06.457Z,3.70
2023-02-27T06:40:59.981Z,3.40
2023-02-27T06:45:55.716Z,3.43
2023-02-27T06:50:53.933Z,3.43
2023-02-27T06:55:49.430Z,3.40
2023-02-27T07:00:43.195Z,3.83
2023-02-27T07:05:36.569Z,3.70
2023-02-27T07:10:29.949Z,3.93
2023-02-27T07:15:24.869Z,3.40
2023-02-27T07:20:18.468Z,3.50
2023-02-27T07:25:12.022Z,3.70
2023-02-27T07:30:06.261Z,3.83
2023-02-27T07:35:00.890Z,3.93
2023-02-27T07:39:54.162Z,3.83
2023-02-27T07:44:47.413Z,3.40
2023-02-27T07:49:40.682Z,3.70
2023-02-27T07:54:37.585Z,3.60
2023-02-27T07:59:30.956Z,3.60
2023-02-27T08:04:24.614Z,3.60
2023-02-27T08:09:18.319Z,3.97
2023-02-27T08:14:13.009Z,3.80
2023-02-27T08:19:06.375Z,3.70
2023-02-27T08:23:59.890Z,3.80
2023-02-27T08:28:53.500Z,3.47
2023-02-27T08:33:49.628Z,4.10
2023-02-27T08:38:46.465Z,3.90
2023-02-27T08:43:39.734Z,3.63
2023-02-27T08:48:33.049Z,3.80
2023-02-27T08:53:28.343Z,3.93
2023-02-27T08:58:22.070Z,3.87
2023-02-27T09:03:16.623Z,4.20
2023-02-27T09:08:09.964Z,4.03
2023-02-27T09:13:04.635Z,3.70
2023-02-27T09:18:02.829Z,4.10
2023-02-27T09:22:56.237Z,3.57
2023-02-27T09:27:49.551Z,3.80
2023-02-27T09:32:44.277Z,4.10
2023-02-27T09:37:37.793Z,3.93
2023-02-27T09:42:42.153Z,4.17
2023-02-27T09:47:41.703Z,3.60
2023-02-27T09:52:38.908Z,3.47
2023-02-27T09:57:50.923Z,3.90
2023-02-27T10:02:57.477Z,3.70
2023-02-27T10:08:04.821Z,3.63
2023-02-27T10:13:37.615Z,3.87
2023-02-27T10:18:36.768Z,3.87
2023-02-27T10:23:42.380Z,3.87
2023-02-27T10:28:36.067Z,3.80
2023-02-27T10:33:37.156Z,4.17
2023-02-27T10:38:40.040Z,4.37
2023-02-27T10:43:33.416Z,3.50
2023-02-27T10:48:26.728Z,3.67
2023-02-27T10:53:23.083Z,3.60
2023-02-27T10:58:21.679Z,3.50
2023-02-27T11:03:22.987Z,3.33
2023-02-27T11:08:27.097Z,3.70
2023-02-27T11:13:26.168Z,3.60
2023-02-27T11:18:29.266Z,4.13
2023-02-27T11:23:26.406Z,3.37
2023-02-27T11:28:28.351Z,3.37
2023-02-27T11:33:22.954Z,3.47
2023-02-27T11:38:23.431Z,3.57
2023-02-27T11:43:22.749Z,3.40
2023-02-27T11:48:24.591Z,4.20
2023-02-27T11:54:10.931Z,4.17
2023-02-27T11:59:21.719Z,3.50
2023-02-27T12:04:25.910Z,3.80
2023-02-27T12:09:38.964Z,3.90
2023-02-27T12:14:50.179Z,3.67
2023-02-27T12:19:59.224Z,3.40
2023-02-27T12:25:01.531Z,3.97
2023-02-27T12:30:03.630Z,4.57
2023-02-27T12:35:06.546Z,4.50
2023-02-27T12:40:07.252Z,4.50
2023-02-27T12:45:43.885Z,4.70
2023-02-27T12:50:55.298Z,5.10
2023-02-27T12:55:55.930Z,5.03
2023-02-27T13:00:59.845Z,5.00
2023-02-27T13:06:07.471Z,5.50
2023-02-27T13:11:12.410Z,5.13
2023-02-27T13:16:16.418Z,5.87
2023-02-27T13:21:20.305Z,5.60
2023-02-27T13:26:21.846Z,5.23
2023-02-27T13:31:31.062Z,5.30
2023-02-27T13:36:33.180Z,4.70
2023-02-27T13:41:40.176Z,5.20
2023-02-27T13:46:35.176Z,5.03
2023-02-27T13:51:49.344Z,5.10
2023-02-27T13:56:46.973Z,4.70
2023-02-27T14:01:41.162Z,5.13
2023-02-27T14:06:43.023Z,4.70
2023-02-27T14:11:40.425Z,4.80
2023-02-27T14:17:07.169Z,5.00
2023-02-27T14:22:03.191Z,4.63
2023-02-27T14:26:59.002Z,4.90
2023-02-27T14:31:55.202Z,4.80
2023-02-27T14:36:53.638Z,4.63
2023-02-27T14:41:59.180Z,4.77
2023-02-27T14:46:56.894Z,4.40
2023-02-27T14:51:51.293Z,4.50
2023-02-27T14:56:55.924Z,4.40
2023-02-27T15:01:49.772Z,4.40
2023-02-27T15:06:48.777Z,4.20
2023-02-27T15:11:44.791Z,4.57
2023-02-27T15:16:43.020Z,3.90
2023-02-27T15:21:44.429Z,3.87
2023-02-27T15:26:41.565Z,3.77
2023-02-27T15:31:36.360Z,4.20
2023-02-27T15:36:33.357Z,4.30
2023-02-27T15:41:28.309Z,3.93
2023-02-27T15:46:21.998Z,4.30
2023-02-27T15:51:15.273Z,4.00
2023-02-27T15:56:14.011Z,3.63
2023-02-27T16:01:18.327Z,4.07
2023-02-27T16:06:17.865Z,3.80
2023-02-27T16:11:20.391Z,4.33
2023-02-27T16:16:35.369Z,3.70
2023-02-27T16:21:32.223Z,3.67
2023-02-27T16:26:31.788Z,3.67
2023-02-27T16:31:31.089Z,3.80
2023-02-27T16:36:27.253Z,3.60
2023-02-27T16:41:24.427Z,3.70
2023-02-27T16:46:21.091Z,2.77
2023-02-27T16:51:20.261Z,3.30
2023-02-27T16:56:13.786Z,2.90
2023-02-27T17:01:08.413Z,3.30
2023-02-27T17:06:03.890Z,3.50
2023-02-27T17:10:59.146Z,3.33
2023-02-27T17:15:52.463Z,3.43
2023-02-27T17:20:45.739Z,3.43
2023-02-27T17:25:40.969Z,3.20
2023-02-27T17:30:36.202Z,3.27
2023-02-27T17:35:30.224Z,3.50
2023-02-27T17:40:23.851Z,3.93
2023-02-27T17:45:17.376Z,3.27
2023-02-27T17:50:13.222Z,3.73
2023-02-27T17:55:08.639Z,3.67
2023-02-27T18:00:04.253Z,3.87
2023-02-27T18:04:59.865Z,4.03
2023-02-27T18:09:54.538Z,3.80
2023-02-27T18:14:47.853Z,4.30
2023-02-27T18:19:42.556Z,4.67
2023-02-27T18:24:35.989Z,4.30
2023-02-27T18:29:30.964Z,3.90
2023-02-27T18:34:25.489Z,3.60
2023-02-27T18:39:19.271Z,3.90
2023-02-27T18:44:12.703Z,4.10
2023-02-27T18:49:07.897Z,4.10
2023-02-27T18:54:01.467Z,4.40
2023-02-27T18:59:02.049Z,4.53
2023-02-27T19:04:03.326Z,4.40
2023-02-27T19:08:58.595Z,4.20
2023-02-27T19:13:52.386Z,3.90
2023-02-27T19:18:45.804Z,3.90
2023-02-27T19:23:39.337Z,4.30
2023-02-27T19:28:34.821Z,4.00
2023-02-27T19:33:28.517Z,3.80
2023-02-27T19:38:22.066Z,3.47
2023-02-27T19:43:15.455Z,3.50
2023-02-27T19:48:12.030Z,3.50
2023-02-27T19:53:05.471Z,3.63
2023-02-27T19:57:58.969Z,3.93
2023-02-27T20:02:52.324Z,3.90
2023-02-27T20:07:48.368Z,3.87
2023-02-27T20:12:41.844Z,3.87
2023-02-27T20:17:35.441Z,3.90
2023-02-27T20:22:28.854Z,3.50
2023-02-27T20:27:23.578Z,3.17
2023-02-27T20:32:21.053Z,3.27
2023-02-27T20:37:14.927Z,3.77
2023-02-27T20:42:08.312Z,3.93
2023-02-27T20:47:03.350Z,3.93
2023-02-27T20:51:58.351Z,3.93
2023-02-27T20:56:54.000Z,3.90
2023-02-27T21:01:51.607Z,4.43
2023-02-27T21:06:46.706Z,3.90
2023-02-27T21:11:42.881Z,4.30
2023-02-27T21:16:37.231Z,3.80
2023-02-27T21:21:33.217Z,4.47
2023-02-27T21:26:35.327Z,4.23
2023-02-27T21:31:42.962Z,4.37
2023-02-27T21:36:44.321Z,4.47
2023-02-27T21:41:48.893Z,4.40
2023-02-27T21:46:42.623Z,4.47
2023-02-27T21:51:40.881Z,5.07
2023-02-27T21:56:34.982Z,4.93
2023-02-27T22:01:31.274Z,5.07
2023-02-27T22:06:28.195Z,5.40
2023-02-27T22:11:21.739Z,5.30
2023-02-27T22:16:15.578Z,4.93
2023-02-27T22:21:13.693Z,4.80
2023-02-27T22:26:12.001Z,5.13
2023-02-27T22:31:11.070Z,5.17
2023-02-27T22:36:10.720Z,5.47
2023-02-27T22:41:09.281Z,5.77
2023-02-27T22:46:03.396Z,5.63
2023-02-27T22:51:03.389Z,5.83
2023-02-27T22:55:58.449Z,6.10
2023-02-27T23:00:51.760Z,6.37
2023-02-27T23:05:50.864Z,5.57
2023-02-27T23:10:44.733Z,6.07
2023-02-27T23:15:39.501Z,6.23
2023-02-27T23:20:33.041Z,6.07
2023-02-27T23:25:26.978Z,6.53
2023-02-27T23:30:20.627Z,6.43
2023-02-27T23:35:17.277Z,6.00
2023-02-27T23:40:12.954Z,6.30
2023-02-27T23:45:27.561Z,6.20
2023-02-27T23:50:25.637Z,6.23
2023-02-27T23:55:21.196Z,6.43
